Time;durP1;ratioP1;P1;durP2;ratioP2;P2;SDS_P1;SDS_P2;PMS_P1;PMS_P2;Temp;Humidity;BMP_temperature;BMP_pressure;BME280_temperature;BME280_humidity;BME280_pressure;Samples;Min_cycle;Max_cycle;Signal;HPM_P1;HPM_P2
2023/07/11 00:00:06;;;;;;;;;;;20.70;70.40;;;20.04;64.17;96388.16;5053568;28;19921;-83
2023/07/11 00:02:34;;;;;;;;;;;20.70;70.40;;;20.02;64.54;96399.59;5035830;28;19921;-83
2023/07/11 00:05:03;;;;;;;;;;;20.70;70.40;;;20.01;64.33;96395.19;5035856;28;19927;-83
2023/07/11 00:07:31;;;;;;;;;;;20.70;70.40;;;20.01;64.31;96386.84;5035327;28;19920;-84
2023/07/11 00:09:59;;;;;;;;;;;20.70;70.50;;;20.01;64.26;96388.81;5049597;28;19920;-83
2023/07/11 00:12:28;;;;;;;;;;;20.60;70.30;;;20.00;64.17;96388.00;5055462;28;19920;-83
2023/07/11 00:14:57;;;;;;;;;;;20.60;70.20;;;20.00;64.41;96389.97;5073194;28;20238;-84
2023/07/11 00:17:25;;;;;;;;;;;20.60;70.40;;;20.01;64.41;96383.25;5072539;28;19930;-83
2023/07/11 00:19:53;;;;;;;;;;;20.60;70.40;;;19.99;64.39;96379.97;5043639;28;20209;-83
2023/07/11 00:22:21;;;;;;;;;;;20.60;70.40;;;20.00;64.41;96374.13;5035270;28;19921;-82
2023/07/11 00:24:50;;;;;;;;;;;20.60;70.40;;;19.99;64.48;96382.75;5062407;28;19921;-82
2023/07/11 00:27:18;;;;;;;;;;;20.60;70.40;;;19.99;64.27;96372.47;5054419;28;19921;-82
2023/07/11 00:29:47;;;;;;;;;;;20.60;70.50;;;20.00;64.62;96376.06;5055295;28;19926;-82
2023/07/11 00:32:15;;;;;;;;;;;20.60;70.50;;;20.00;64.73;96381.63;5055189;28;19920;-82
2023/07/11 00:34:43;;;;;;;;;;;20.60;70.50;;;20.00;64.71;96378.84;5054816;28;19926;-82
2023/07/11 00:37:11;;;;;;;;;;;20.60;70.70;;;20.00;64.66;96378.84;5018280;28;19935;-82
2023/07/11 00:39:39;;;;;;;;;;;20.60;70.70;;;19.99;64.71;96378.03;5035421;28;20136;-82
2023/07/11 00:42:08;;;;;;;;;;;20.60;70.60;;;19.99;64.60;96382.75;5018642;28;19921;-82
2023/07/11 00:44:55;;;;;;;;;;;20.60;70.50;;;19.98;64.41;96372.78;5035193;28;19921;-82
2023/07/11 00:47:25;;;;;;;;;;;20.60;70.50;;;20.00;64.55;96376.06;5018089;28;19931;-82
2023/07/11 00:49:54;;;;;;;;;;;20.60;70.70;;;19.99;64.68;96360.53;5035560;28;19921;-83
2023/07/11 00:52:22;;;;;;;;;;;20.60;70.70;;;20.00;64.68;96362.16;5035186;28;20208;-83
2023/07/11 00:54:51;;;;;;;;;;;20.60;70.80;;;20.00;64.73;96362.16;5034905;28;19927;-83
2023/07/11 00:57:19;;;;;;;;;;;20.60;70.80;;;20.00;64.75;96362.16;5034371;28;20235;-83
2023/07/11 00:59:48;;;;;;;;;;;20.60;70.90;;;20.00;64.57;96363.00;5035208;28;19921;-83
2023/07/11 01:02:19;;;;;;;;;;;20.60;70.80;;;20.00;64.72;96351.06;5035084;28;19920;-83
2023/07/11 01:04:47;;;;;;;;;;;20.60;70.70;;;20.00;64.62;96353.84;5052460;28;19920;-83
2023/07/11 01:07:18;;;;;;;;;;;20.60;70.80;;;19.99;64.70;96352.19;5034177;28;19927;-83
2023/07/11 01:09:46;;;;;;;;;;;20.60;70.70;;;19.99;64.83;96357.75;5034760;28;19921;-83
2023/07/11 01:12:14;;;;;;;;;;;20.60;70.80;;;19.98;64.63;96353.34;5052509;28;19921;-82
2023/07/11 01:14:43;;;;;;;;;;;20.60;70.80;;;19.99;64.64;96354.97;5018381;28;19935;-83
2023/07/11 01:17:27;;;;;;;;;;;20.60;70.80;;;19.98;64.71;96353.34;5017666;28;19927;-82
2023/07/11 01:19:55;;;;;;;;;;;20.60;70.90;;;19.98;64.67;96350.56;5018240;28;19920;-83
2023/07/11 01:22:25;;;;;;;;;;;20.60;70.80;;;19.97;64.79;96352.53;5034679;28;19920;-83
2023/07/11 01:24:56;;;;;;;;;;;20.60;70.90;;;19.97;64.82;96346.16;5050931;28;19921;-83
2023/07/11 01:27:24;;;;;;;;;;;20.60;71.00;;;19.97;64.70;96348.94;5034267;28;20119;-83
2023/07/11 01:29:52;;;;;;;;;;;20.60;70.90;;;19.97;64.94;96340.59;5034616;28;19927;-83
2023/07/11 01:32:20;;;;;;;;;;;20.60;71.00;;;19.96;65.06;96350.06;5034407;28;19928;-83
2023/07/11 01:34:48;;;;;;;;;;;20.60;71.00;;;19.96;64.83;96347.28;5018935;28;19927;-83
2023/07/11 01:37:16;;;;;;;;;;;20.60;71.00;;;19.96;65.05;96339.78;5071571;28;19921;-83
2023/07/11 01:39:46;;;;;;;;;;;20.60;71.10;;;19.96;65.18;96338.94;5053317;28;19927;-83
2023/07/11 01:42:14;;;;;;;;;;;20.60;71.10;;;19.93;64.74;96341.28;5051096;28;19927;-83
2023/07/11 01:44:41;;;;;;;;;;;20.60;71.00;;;19.95;65.05;96342.88;5051726;28;19927;-84
2023/07/11 01:47:09;;;;;;;;;;;20.60;71.00;;;19.93;64.99;96337.66;5033698;28;19939;-83
2023/07/11 01:49:37;;;;;;;;;;;20.60;71.30;;;19.93;65.15;96346.81;5034155;28;19921;-82
2023/07/11 01:52:08;;;;;;;;;;;20.60;71.20;;;19.93;65.18;96346.00;5034128;28;19927;-83
2023/07/11 01:54:36;;;;;;;;;;;20.60;71.20;;;19.92;65.12;96345.19;5050689;28;19921;-83
2023/07/11 01:57:07;;;;;;;;;;;20.60;71.20;;;19.91;64.91;96346.34;5033540;28;19927;-83
2023/07/11 01:59:35;;;;;;;;;;;20.60;71.20;;;19.93;65.21;96337.66;5017543;28;19942;-83
2023/07/11 02:02:03;;;;;;;;;;;20.60;71.30;;;19.92;65.20;96334.06;5017789;28;20146;-83
2023/07/11 02:04:33;;;;;;;;;;;20.60;71.30;;;19.92;65.23;96338.78;5034058;28;20112;-82
2023/07/11 02:07:01;;;;;;;;;;;20.60;71.40;;;19.92;65.28;96328.53;5033440;28;19920;-83
2023/07/11 02:09:29;;;;;;;;;;;20.60;71.30;;;19.92;65.22;96344.34;5033820;28;19921;-83
2023/07/11 02:11:57;;;;;;;;;;;20.60;71.30;;;19.91;65.04;96338.00;5034043;28;19921;-83
2023/07/11 02:14:27;;;;;;;;;;;20.60;71.20;;;19.91;65.26;96338.00;5033683;28;19921;-83
2023/07/11 02:16:55;;;;;;;;;;;20.60;71.30;;;19.91;65.28;96337.16;5033291;28;20101;-83
2023/07/11 02:19:23;;;;;;;;;;;20.60;71.20;;;19.91;65.30;96340.78;5017408;28;20203;-83
2023/07/11 02:21:52;;;;;;;;;;;20.60;71.20;;;19.90;65.08;96341.09;5033882;28;19921;-83
2023/07/11 02:24:20;;;;;;;;;;;20.60;71.00;;;19.90;65.06;96341.91;5017151;28;19959;-83
2023/07/11 02:26:48;;;;;;;;;;;20.60;71.10;;;19.89;64.97;96331.13;5033098;28;19921;-83
2023/07/11 02:29:16;;;;;;;;;;;20.60;71.00;;;19.90;65.08;96333.59;5033812;28;20309;-83
2023/07/11 02:31:45;;;;;;;;;;;20.60;71.00;;;19.88;65.01;96338.66;5033828;28;19920;-83
2023/07/11 02:34:13;;;;;;;;;;;20.50;70.90;;;19.87;64.82;96341.75;5050329;28;19927;-83
2023/07/11 02:36:41;;;;;;;;;;;20.50;71.00;;;19.87;64.75;96338.97;5049049;28;20246;-83
2023/07/11 02:39:09;;;;;;;;;;;20.50;70.90;;;19.87;64.96;96339.78;5053337;28;19920;-83
2023/07/11 02:41:36;;;;;;;;;;;20.50;71.00;;;19.85;64.93;96333.69;5036732;28;19926;-83
2023/07/11 02:44:05;;;;;;;;;;;20.50;70.90;;;19.86;64.72;96340.09;5053179;28;20115;-83
2023/07/11 02:46:33;;;;;;;;;;;20.50;71.80;;;19.85;65.06;96338.47;5070507;28;19927;-83
2023/07/11 02:49:02;;;;;;;;;;;20.50;71.00;;;19.84;64.96;96331.25;5053114;28;19935;-83
2023/07/11 02:51:30;;;;;;;;;;;20.50;70.90;;;19.83;64.92;96333.22;5054466;28;19920;-83
2023/07/11 02:53:57;;;;;;;;;;;20.50;71.00;;;19.82;65.17;96328.78;5056592;28;19920;-83
2023/07/11 02:56:26;;;;;;;;;;;20.50;71.00;;;19.82;64.84;96326.03;5073987;28;19920;-83
2023/07/11 02:58:54;;;;;;;;;;;20.50;71.10;;;19.82;65.28;96326.03;5056923;28;19920;-83
2023/07/11 03:01:22;;;;;;;;;;;20.50;71.20;;;19.82;65.07;96331.56;5040043;28;19921;-83
2023/07/11 03:03:50;;;;;;;;;;;20.50;71.20;;;19.82;65.11;96339.09;5040173;28;19934;-84
2023/07/11 03:06:19;;;;;;;;;;;20.50;71.30;;;19.82;65.08;96351.03;5039898;28;19921;-83
2023/07/11 03:08:47;;;;;;;;;;;20.50;71.20;;;19.82;65.23;96334.34;5056528;28;19920;-83
2023/07/11 03:11:15;;;;;;;;;;;20.50;71.20;;;19.83;65.09;96351.84;5056401;28;20234;-84
2023/07/11 03:13:43;;;;;;;;;;;20.50;71.30;;;19.82;65.13;96339.91;5056587;28;20230;-83
2023/07/11 03:16:11;;;;;;;;;;;20.50;71.30;;;19.83;65.41;96338.78;5039790;28;19921;-83
2023/07/11 03:18:39;;;;;;;;;;;20.50;71.50;;;19.83;65.24;96336.00;5055818;28;20436;-83
2023/07/11 03:21:07;;;;;;;;;;;20.50;71.50;;;19.84;65.18;96329.28;5039896;28;19920;-83
2023/07/11 03:23:36;;;;;;;;;;;20.50;71.50;;;19.83;65.23;96333.22;5056392;28;19926;-83
2023/07/11 03:26:04;;;;;;;;;;;20.50;71.50;;;19.83;65.41;96338.78;5039680;28;19920;-83
2023/07/11 03:28:32;;;;;;;;;;;20.50;71.50;;;19.82;65.14;96337.13;5055804;28;19927;-83
2023/07/11 03:31:00;;;;;;;;;;;20.50;71.40;;;19.82;65.34;96345.47;5056363;28;19927;-83
2023/07/11 03:33:28;;;;;;;;;;;20.50;71.50;;;19.82;65.33;96339.91;5056237;28;19921;-83
2023/07/11 03:35:56;;;;;;;;;;;20.50;71.50;;;19.84;65.57;96336.81;5046018;28;19921;-83
2023/07/11 03:38:24;;;;;;;;;;;20.50;71.60;;;19.84;65.76;96339.59;5035809;28;19920;-83
2023/07/11 03:40:54;;;;;;;;;;;20.50;71.70;;;19.85;65.68;96327.34;5052933;28;19920;-84
2023/07/11 03:43:22;;;;;;;;;;;20.50;71.60;;;19.85;65.63;96333.69;5053777;28;20204;-83
2023/07/11 03:45:49;;;;;;;;;;;20.50;71.60;;;19.84;65.66;96332.06;5019590;28;19927;-83
2023/07/11 03:48:18;;;;;;;;;;;20.50;72.60;;;19.83;65.61;96327.66;5035473;28;19920;-83
2023/07/11 03:50:45;;;;;;;;;;;20.50;71.70;;;19.84;65.83;96334.84;5052806;28;19927;-83
2023/07/11 03:53:14;;;;;;;;;;;20.50;71.70;;;19.84;65.43;96334.84;5036051;28;19928;-83
2023/07/11 03:55:42;;;;;;;;;;;20.50;71.80;;;19.86;65.49;96340.94;5052731;28;19927;-83
2023/07/11 03:58:12;;;;;;;;;;;20.50;71.70;;;19.86;65.44;96334.53;5053052;28;19921;-83
2023/07/11 04:00:39;;;;;;;;;;;20.50;71.70;;;19.86;65.60;96335.38;5035931;28;19921;-83
2023/07/11 04:03:07;;;;;;;;;;;20.50;71.80;;;19.86;65.71;96346.47;5018789;28;19928;-83
2023/07/11 04:05:35;;;;;;;;;;;20.50;71.90;;;19.87;65.77;96342.56;5035788;28;19921;-83
2023/07/11 04:08:03;;;;;;;;;;;20.50;71.90;;;19.87;66.04;96339.78;5018785;28;19921;-83
2023/07/11 04:10:32;;;;;;;;;;;20.50;72.00;;;19.87;65.77;96342.56;5019484;28;19921;-83
2023/07/11 04:13:00;;;;;;;;;;;20.50;72.00;;;19.87;65.76;96345.34;5035741;28;19927;-83
2023/07/11 04:15:29;;;;;;;;;;;20.50;72.10;;;19.88;65.89;96344.19;5035789;28;20246;-83
2023/07/11 04:17:57;;;;;;;;;;;20.50;72.00;;;19.87;65.97;96356.47;5034953;28;19921;-83
2023/07/11 04:20:25;;;;;;;;;;;20.50;72.10;;;19.88;66.06;96355.31;5053372;28;20221;-83
2023/07/11 04:22:53;;;;;;;;;;;20.50;72.20;;;19.89;66.04;96350.56;5019166;28;19927;-83
2023/07/11 04:25:21;;;;;;;;;;;20.50;72.20;;;19.90;66.16;96336.34;5019111;28;19920;-83
2023/07/11 04:27:49;;;;;;;;;;;20.50;72.30;;;19.89;65.94;96340.28;5034823;28;19920;-83
2023/07/11 04:30:16;;;;;;;;;;;20.60;72.20;;;19.88;66.12;96337.84;5035504;28;19928;-83
2023/07/11 04:32:48;;;;;;;;;;;20.50;72.30;;;19.89;66.07;96340.28;5018946;28;20234;-83
2023/07/11 04:35:17;;;;;;;;;;;20.50;72.40;;;19.90;66.35;96330.81;5057923;28;19926;-83
2023/07/11 04:37:45;;;;;;;;;;;20.60;72.40;;;19.89;66.36;96343.06;5054641;28;19921;-83
2023/07/11 04:40:13;;;;;;;;;;;20.60;72.50;;;19.90;66.37;96333.59;5055461;28;20116;-83
2023/07/11 04:42:41;;;;;;;;;;;20.60;72.60;;;19.91;66.59;96332.44;5055188;28;19920;-83
2023/07/11 04:45:09;;;;;;;;;;;20.60;72.90;;;19.92;67.05;96345.19;5038482;28;19920;-83
2023/07/11 04:47:37;;;;;;;;;;;20.60;73.30;;;19.93;67.24;96332.94;5054494;28;20234;-83
2023/07/11 04:50:07;;;;;;;;;;;20.50;73.40;;;19.91;67.27;96318.53;5055261;28;19927;-83
2023/07/11 04:52:35;;;;;;;;;;;20.50;73.80;;;19.92;67.17;96322.97;5072905;28;19926;-83
2023/07/11 04:55:03;;;;;;;;;;;20.50;74.00;;;19.93;67.46;96330.16;5055071;28;19920;-83
2023/07/11 04:57:31;;;;;;;;;;;20.50;74.10;;;19.96;67.44;96339.78;5037824;28;19920;-83
2023/07/11 04:59:59;;;;;;;;;;;20.50;74.00;;;19.98;67.69;96334.72;5054982;28;20207;-83
2023/07/11 05:02:27;;;;;;;;;;;20.60;74.60;;;20.01;67.69;96330.47;5054883;28;19920;-83
2023/07/11 05:04:55;;;;;;;;;;;20.60;74.40;;;20.03;67.48;96322.63;5054998;28;19926;-83
2023/07/11 05:07:24;;;;;;;;;;;20.60;74.20;;;20.06;68.35;96321.97;5037604;28;20238;-83
2023/07/11 05:09:52;;;;;;;;;;;20.60;75.20;;;20.08;67.55;96326.03;5054922;28;19921;-83
2023/07/11 05:12:20;;;;;;;;;;;20.60;74.20;;;20.09;67.35;96335.19;5038090;28;19920;-83
2023/07/11 05:14:48;;;;;;;;;;;20.70;74.20;;;20.12;67.33;96331.75;5037028;28;20115;-83
2023/07/11 05:17:15;;;;;;;;;;;20.70;74.10;;;20.12;67.67;96330.94;5053829;28;19935;-84
2023/07/11 05:19:43;;;;;;;;;;;20.70;74.10;;;20.12;67.22;96330.94;5072587;28;20111;-83
2023/07/11 05:22:11;;;;;;;;;;;20.70;74.10;;;20.11;68.14;96338.44;5054510;28;19920;-83
2023/07/11 05:24:40;;;;;;;;;;;20.70;74.50;;;20.13;68.20;96344.50;5054510;28;19920;-83
2023/07/11 05:27:08;;;;;;;;;;;20.70;74.80;;;20.15;68.40;96336.66;5054037;28;19920;-83
2023/07/11 05:29:36;;;;;;;;;;;20.70;75.20;;;20.17;68.04;96339.94;5054533;28;19921;-83
2023/07/11 05:32:05;;;;;;;;;;;20.80;74.80;;;20.18;67.75;96344.34;5054523;28;19920;-83
2023/07/11 05:34:33;;;;;;;;;;;20.80;74.40;;;20.18;67.96;96338.78;5054606;28;19920;-84
2023/07/11 05:37:01;;;;;;;;;;;20.80;74.50;;;20.17;68.12;96328.81;5018439;28;20212;-83
2023/07/11 05:39:29;;;;;;;;;;;20.80;74.70;;;20.16;67.93;96340.22;5040563;28;19924;-84
2023/07/11 05:41:58;;;;;;;;;;;20.70;74.60;;;20.15;68.25;96336.66;5054355;28;19920;-83
2023/07/11 05:44:26;;;;;;;;;;;20.70;74.90;;;20.15;68.21;96336.66;5054320;28;20112;-83
2023/07/11 05:46:54;;;;;;;;;;;20.70;74.90;;;20.13;68.42;96341.72;5053719;28;20234;-84
2023/07/11 05:49:22;;;;;;;;;;;20.70;75.30;;;20.13;68.26;96341.72;5054163;28;19920;-83
2023/07/11 05:51:49;;;;;;;;;;;20.70;75.10;;;20.14;68.82;96329.47;5054167;28;20115;-83
2023/07/11 05:54:17;;;;;;;;;;;20.70;75.50;;;20.15;69.04;96336.66;5037645;28;19920;-83
2023/07/11 05:56:45;;;;;;;;;;;20.70;75.80;;;20.18;69.13;96330.44;5037008;28;19927;-83
2023/07/11 05:59:14;;;;;;;;;;;20.70;75.80;;;20.23;68.84;96321.91;5037536;28;19920;-83
2023/07/11 06:01:42;;;;;;;;;;;20.80;75.50;;;20.30;67.98;96328.94;5070659;28;20116;-83
2023/07/11 06:04:11;;;;;;;;;;;20.90;74.80;;;20.37;67.66;96323.66;5037560;28;19928;-83
2023/07/11 06:06:42;;;;;;;;;;;20.90;74.40;;;20.43;67.55;96319.59;5053539;28;19920;-83
2023/07/11 06:09:11;;;;;;;;;;;21.00;74.00;;;20.49;67.28;96321.03;5054134;28;19920;-83
2023/07/11 06:11:39;;;;;;;;;;;21.00;73.90;;;20.53;67.06;96318.38;5037611;28;19920;-83
2023/07/11 06:14:07;;;;;;;;;;;21.10;73.70;;;20.60;67.08;96323.44;5053857;28;19927;-83
2023/07/11 06:16:37;;;;;;;;;;;21.20;73.60;;;20.66;67.11;96322.13;5054109;28;19921;-84
2023/07/11 06:19:05;;;;;;;;;;;21.20;73.40;;;20.71;66.62;96310.81;5036916;28;19927;-83
2023/07/11 06:21:33;;;;;;;;;;;21.30;73.10;;;20.76;66.38;96307.84;5054009;28;19927;-84
2023/07/11 06:24:01;;;;;;;;;;;21.30;72.80;;;20.82;66.37;96314.88;5053816;28;19928;-84
2023/07/11 06:26:28;;;;;;;;;;;21.40;72.90;;;20.87;66.04;96316.66;5053504;28;19920;-83
2023/07/11 06:28:56;;;;;;;;;;;21.40;72.70;;;20.92;66.23;96313.66;5069985;28;19921;-83
2023/07/11 06:31:24;;;;;;;;;;;21.50;72.70;;;20.96;66.03;96311.03;5053814;28;19934;-83
2023/07/11 06:33:53;;;;;;;;;;;21.50;72.40;;;21.00;65.68;96311.97;5071538;28;19927;-83
2023/07/11 06:36:21;;;;;;;;;;;21.60;72.00;;;21.04;65.87;96303.81;5040191;28;19927;-82
2023/07/11 06:38:49;;;;;;;;;;;21.60;72.40;;;21.08;65.42;96302.78;5016929;28;19921;-82
2023/07/11 06:41:17;;;;;;;;;;;21.60;72.00;;;21.11;65.48;96298.50;5017508;28;19927;-83
2023/07/11 06:43:45;;;;;;;;;;;21.70;71.90;;;21.14;65.67;96304.22;5017477;28;19921;-83
2023/07/11 06:46:13;;;;;;;;;;;21.70;71.90;;;21.17;65.26;96307.47;5050375;28;19921;-83
2023/07/11 06:48:43;;;;;;;;;;;21.70;71.40;;;21.14;65.11;96307.00;5032674;28;21439;-83
2023/07/11 06:51:13;;;;;;;;;;;21.80;71.20;;;21.14;65.11;96309.78;5041853;23;19928;-87
2023/07/11 06:53:40;;;;;;;;;;;21.70;71.20;;;21.12;65.05;96303.72;4994098;28;19928;-87
2023/07/11 06:56:08;;;;;;;;;;;21.70;71.10;;;21.10;65.07;96308.84;4994212;28;19922;-88
2023/07/11 06:58:36;;;;;;;;;;;21.70;71.30;;;21.13;65.48;96297.00;4993581;28;20207;-87
2023/07/11 07:01:05;;;;;;;;;;;21.70;71.60;;;21.15;65.31;96288.34;4994171;28;19921;-87
2023/07/11 07:03:33;;;;;;;;;;;21.80;71.60;;;21.18;65.46;96298.78;4993998;28;19925;-87
2023/07/11 07:06:02;;;;;;;;;;;21.80;71.70;;;21.19;65.16;96294.84;5010094;28;19922;-88
2023/07/11 07:08:32;;;;;;;;;;;21.80;71.60;;;21.22;65.01;96298.94;4993565;28;20116;-87
2023/07/11 07:11:00;;;;;;;;;;;21.80;71.30;;;21.24;65.01;96296.59;5010151;28;19921;-88
2023/07/11 07:13:28;;;;;;;;;;;21.80;71.40;;;21.24;65.15;96308.56;4993942;28;19928;-87
2023/07/11 07:15:57;;;;;;;;;;;21.90;71.30;;;21.23;65.27;96306.16;4994028;28;19921;-88
2023/07/11 07:18:25;;;;;;;;;;;21.80;71.30;;;21.21;65.05;96300.09;5009471;28;19932;-87
2023/07/11 07:20:53;;;;;;;;;;;21.90;71.30;;;21.18;65.29;96289.63;4993873;28;19921;-87
2023/07/11 07:23:21;;;;;;;;;;;21.80;71.30;;;21.14;64.75;96290.28;4993970;28;19922;-88
2023/07/11 07:25:55;;;;;;;;;;;21.80;71.10;;;21.09;65.33;96273.81;4993787;28;19922;-88
2023/07/11 07:28:23;;;;;;;;;;;21.80;71.20;;;21.07;65.74;96278.88;5010503;28;19922;-88
2023/07/11 07:30:52;;;;;;;;;;;21.70;71.90;;;21.03;65.47;96275.13;4993627;28;20213;-87
2023/07/11 07:33:23;;;;;;;;;;;21.70;71.60;;;21.02;65.23;96267.94;4993672;28;20239;-87
2023/07/11 07:35:54;;;;;;;;;;;21.70;71.70;;;20.99;65.69;96257.47;5009959;28;19921;-87
2023/07/11 07:38:22;;;;;;;;;;;21.60;71.80;;;20.99;65.63;96257.47;5011090;28;19928;-87
2023/07/11 07:40:53;;;;;;;;;;;21.60;71.90;;;20.99;65.74;96260.25;4997057;28;19928;-87
2023/07/11 07:43:21;;;;;;;;;;;21.60;71.90;;;21.03;65.89;96264.00;5013244;28;19921;-87
2023/07/11 07:45:49;;;;;;;;;;;21.60;72.20;;;21.06;65.83;96255.00;4997075;28;19927;-87
2023/07/11 07:48:18;;;;;;;;;;;21.70;72.40;;;21.11;65.72;96263.13;5012488;28;19928;-87
2023/07/11 07:50:45;;;;;;;;;;;21.70;72.00;;;21.12;65.61;96261.97;5029380;28;19922;-88
2023/07/11 07:53:13;;;;;;;;;;;21.70;72.00;;;21.11;65.42;96252.00;4996908;28;19921;-88
2023/07/11 07:55:41;;;;;;;;;;;21.80;71.80;;;21.13;65.59;96257.22;5012897;28;19927;-88
2023/07/11 07:58:13;;;;;;;;;;;21.70;71.70;;;21.13;65.61;96255.25;5012508;28;19928;-88
2023/07/11 08:00:41;;;;;;;;;;;21.80;72.00;;;21.14;65.81;96254.09;5013970;28;19944;-87
2023/07/11 08:03:09;;;;;;;;;;;21.80;72.00;;;21.15;65.54;96249.38;4996875;28;19922;-87
2023/07/11 08:05:37;;;;;;;;;;;21.70;71.90;;;21.15;65.44;96250.16;4996474;28;19929;-87
2023/07/11 08:08:05;;;;;;;;;;;21.80;71.70;;;21.16;65.79;96262.13;4996023;28;19921;-87
2023/07/11 08:10:33;;;;;;;;;;;21.80;71.70;;;21.18;65.50;96264.56;5012630;28;19927;-87
2023/07/11 08:13:01;;;;;;;;;;;21.80;71.80;;;21.17;65.68;96272.13;5012808;28;19922;-88
2023/07/11 08:15:31;;;;;;;;;;;21.80;72.10;;;21.19;65.41;96277.34;5012678;28;20116;-87
2023/07/11 08:17:58;;;;;;;;;;;21.80;71.90;;;21.18;65.79;96275.69;5012123;28;19921;-88
2023/07/11 08:20:26;;;;;;;;;;;21.80;71.80;;;21.15;65.73;96266.88;5012672;28;19921;-88
2023/07/11 08:22:54;;;;;;;;;;;21.80;72.10;;;21.19;65.50;96266.19;4996399;28;19922;-87
2023/07/11 08:25:22;;;;;;;;;;;21.80;71.80;;;21.18;66.23;96261.78;4996374;28;19928;-88
2023/07/11 08:27:50;;;;;;;;;;;21.80;72.30;;;21.18;66.09;96265.38;4995666;28;20121;-87
2023/07/11 08:30:18;;;;;;;;;;;21.80;72.30;;;21.17;65.75;96257.38;5013474;28;20217;-87
2023/07/11 08:32:47;;;;;;;;;;;21.80;72.00;;;21.18;65.89;96270.13;4996402;28;20212;-87
2023/07/11 08:35:15;;;;;;;;;;;21.80;72.00;;;21.17;65.92;96279.63;5012474;28;19928;-87
2023/07/11 08:37:43;;;;;;;;;;;21.80;72.00;;;21.14;65.85;96293.06;5011841;28;19921;-87
2023/07/11 08:40:16;;;;;;;;;;;21.80;72.20;;;21.14;66.39;96315.34;5028747;28;19928;-87
2023/07/11 08:42:44;;;;;;;;;;;21.70;72.70;;;21.12;66.28;96319.63;5012491;28;19922;-87
2023/07/11 08:45:17;;;;;;;;;;;21.70;72.40;;;21.10;65.97;96325.53;5012302;28;19921;-87
2023/07/11 08:47:52;;;;;;;;;;;21.70;72.30;;;21.06;66.02;96296.75;5007542;28;19922;-87
2023/07/11 08:50:21;;;;;;;;;;;21.70;72.40;;;21.04;66.63;96299.03;4995656;28;19932;-88
2023/07/11 08:52:50;;;;;;;;;;;21.70;73.10;;;21.04;66.42;96309.38;4995945;28;19928;-87
2023/07/11 08:55:19;;;;;;;;;;;21.70;72.60;;;21.03;66.36;96291.84;4995822;28;19928;-87
2023/07/11 08:57:49;;;;;;;;;;;21.60;72.50;;;21.03;66.38;96291.03;5011486;28;19922;-87
2023/07/11 09:00:17;;;;;;;;;;;21.70;72.70;;;21.03;66.33;96291.03;4995631;28;19921;-87
2023/07/11 09:02:52;;;;;;;;;;;21.70;72.70;;;21.00;66.51;96286.94;5012232;28;19921;-87
2023/07/11 09:05:31;;;;;;;;;;;21.60;72.70;;;21.01;66.59;96288.56;5012011;28;19928;-88
2023/07/11 09:07:59;;;;;;;;;;;21.60;72.50;;;21.00;66.46;96293.34;4995180;28;20124;-87
2023/07/11 09:10:38;;;;;;;;;;;21.60;72.70;;;20.99;66.68;96286.13;4995518;28;19928;-87
2023/07/11 09:13:14;;;;;;;;;;;21.60;72.80;;;20.99;66.47;96279.75;5012198;28;20098;-87
2023/07/11 09:15:43;;;;;;;;;;;21.60;72.70;;;21.00;66.34;96289.72;4995648;28;20109;-88
2023/07/11 09:18:18;;;;;;;;;;;21.60;72.80;;;20.98;66.46;96286.44;5011249;28;19921;-88
2023/07/11 09:20:49;;;;;;;;;;;21.60;72.70;;;20.99;66.64;96296.44;5011497;28;20234;-87
2023/07/11 09:23:34;;;;;;;;;;;21.60;72.80;;;20.99;66.44;96290.88;5012915;28;19922;-88
2023/07/11 09:26:02;;;;;;;;;;;21.60;72.80;;;20.99;66.47;96302.84;5011706;28;20116;-87
2023/07/11 09:28:32;;;;;;;;;;;21.60;72.70;;;20.98;66.51;96315.13;5010937;28;19927;-88
2023/07/11 09:31:01;;;;;;;;;;;21.60;72.80;;;20.97;66.46;96318.25;5011452;28;19921;-88
2023/07/11 09:33:31;;;;;;;;;;;21.60;72.70;;;20.97;66.67;96321.03;4995437;28;20208;-88
2023/07/11 09:36:00;;;;;;;;;;;21.60;72.80;;;20.95;66.58;96323.31;5011492;28;19928;-88
2023/07/11 09:38:30;;;;;;;;;;;21.60;72.80;;;20.94;66.56;96328.06;4994689;28;19921;-88
2023/07/11 09:41:04;;;;;;;;;;;21.50;72.90;;;20.93;66.68;96336.75;5011360;28;20159;-87
2023/07/11 09:43:32;;;;;;;;;;;21.60;73.00;;;20.93;66.76;96331.19;4995244;28;20148;-88
2023/07/11 09:46:00;;;;;;;;;;;21.50;73.00;;;20.92;66.82;96326.78;4995028;28;20239;-88
2023/07/11 09:48:34;;;;;;;;;;;21.50;73.00;;;20.92;66.85;96324.78;4994473;28;19940;-88
2023/07/11 09:51:09;;;;;;;;;;;21.50;73.20;;;20.90;66.74;96329.06;5011175;28;19921;-88
2023/07/11 09:53:37;;;;;;;;;;;21.50;73.20;;;20.90;66.90;96345.75;5011326;28;19922;-88
2023/07/11 09:56:10;;;;;;;;;;;21.50;73.20;;;20.90;66.99;96349.38;4994572;28;19921;-87
2023/07/11 09:58:38;;;;;;;;;;;21.50;73.20;;;20.89;67.12;96335.78;5010728;28;19921;-88
2023/07/11 10:01:06;;;;;;;;;;;21.50;73.30;;;20.88;67.19;96343.34;5010188;28;19922;-87
2023/07/11 10:03:36;;;;;;;;;;;21.50;73.50;;;20.88;66.84;96342.50;4994967;28;19921;-88
2023/07/11 10:06:04;;;;;;;;;;;21.50;73.40;;;20.88;67.08;96342.50;5011075;28;19922;-87
2023/07/11 10:08:35;;;;;;;;;;;21.50;73.40;;;20.88;67.00;96339.72;4994115;28;19921;-88
2023/07/11 10:11:05;;;;;;;;;;;21.50;73.50;;;20.88;66.86;96342.50;5011041;28;19921;-88
2023/07/11 10:13:33;;;;;;;;;;;21.50;73.50;;;20.88;67.32;96343.34;5008354;28;19921;-87
2023/07/11 10:16:01;;;;;;;;;;;21.50;73.60;;;20.88;67.13;96332.19;4991468;28;19928;-88
2023/07/11 10:18:30;;;;;;;;;;;21.50;73.50;;;20.89;67.14;96333.00;4974569;28;19922;-88
2023/07/11 10:21:01;;;;;;;;;;;21.50;73.60;;;20.89;67.18;96319.91;4991370;28;19922;-88
2023/07/11 10:23:29;;;;;;;;;;;21.50;73.60;;;20.89;67.32;96322.69;4975201;28;19921;-88
2023/07/11 10:26:06;;;;;;;;;;;21.50;73.80;;;20.90;67.11;96306.81;4975099;28;20098;-88
2023/07/11 10:28:35;;;;;;;;;;;21.50;73.60;;;20.91;67.08;96305.66;4974493;28;19928;-87
2023/07/11 10:31:07;;;;;;;;;;;21.50;73.70;;;20.92;67.16;96307.28;4991176;28;19928;-88
2023/07/11 10:33:38;;;;;;;;;;;21.50;73.60;;;20.92;67.42;96322.00;4975001;28;19922;-87
2023/07/11 10:36:12;;;;;;;;;;;21.50;73.80;;;20.92;67.25;96313.66;4991403;28;20117;-88
2023/07/11 10:38:46;;;;;;;;;;;21.50;73.60;;;20.93;67.31;96311.72;4990520;28;19922;-87
2023/07/11 10:41:18;;;;;;;;;;;21.50;73.60;;;20.93;67.42;96308.94;4974894;28;19922;-88
2023/07/11 10:43:46;;;;;;;;;;;21.50;73.80;;;20.94;67.21;96305.78;4990994;28;19928;-88
2023/07/11 10:46:16;;;;;;;;;;;21.60;73.60;;;20.93;67.07;96309.72;4991090;28;19928;-87
2023/07/11 10:48:47;;;;;;;;;;;21.50;73.60;;;20.94;67.12;96305.00;4974063;28;19928;-88
2023/07/11 10:51:20;;;;;;;;;;;21.60;73.50;;;20.95;67.14;96306.63;5010396;28;19928;-88
2023/07/11 10:53:49;;;;;;;;;;;21.50;73.50;;;20.95;67.20;96314.97;5026857;28;19922;-87
2023/07/11 10:56:19;;;;;;;;;;;21.50;73.50;;;20.94;67.28;96305.00;4994180;28;20221;-87
2023/07/11 10:58:48;;;;;;;;;;;21.50;73.60;;;20.95;67.46;96298.28;5009933;28;19928;-88
2023/07/11 11:01:19;;;;;;;;;;;21.50;73.90;;;20.96;67.29;96302.69;5010344;28;19928;-87
2023/07/11 11:03:48;;;;;;;;;;;21.60;73.60;;;20.97;67.29;96304.34;4994025;28;19944;-88
2023/07/11 11:06:24;;;;;;;;;;;21.60;73.50;;;20.97;67.28;96301.53;5010224;28;19928;-88
2023/07/11 11:08:56;;;;;;;;;;;21.60;73.60;;;20.98;67.23;96303.16;5009531;28;19922;-87
2023/07/11 11:11:29;;;;;;;;;;;21.60;73.50;;;20.99;67.10;96302.00;5010837;28;19971;-88
2023/07/11 11:14:03;;;;;;;;;;;21.60;73.50;;;21.00;67.25;96292.50;5013774;28;19921;-88
2023/07/11 11:16:32;;;;;;;;;;;21.60;73.70;;;21.00;67.09;96287.78;4997472;28;20121;-87
2023/07/11 11:19:06;;;;;;;;;;;21.60;73.40;;;21.02;66.97;96293.00;4996680;28;20124;-87
2023/07/11 11:21:38;;;;;;;;;;;21.60;73.40;;;21.03;66.90;96286.28;4997272;28;19921;-88
2023/07/11 11:24:15;;;;;;;;;;;21.60;73.40;;;21.03;67.02;96280.72;5013546;28;19928;-87